Wheatland, North Dakota
Current Conditions -  °F | °C
As of 9:53 AM on Saturday 25 Oct 2014 (Local Time) from KFAR Reporting Station
Clear Clear  
Wind Chill:   Ceiling: Unl
Heat Index:   Visibility: 10mi
Dew Point:   Wind: 15mph
Humidity: 54%   Direction: 290°WNW
Pressure: 30.1"   Gusts: NA
Location:  46.91°N, 97.34°W
Report Text: KFAR 251453Z AUTO 29013KT 10SM CLR 09/01 A3010 RMK AO2 SLP197 T00940006 53018 TSNO $
Loading
Personal Weather Stations






























Interactive Weather Map
Tropical Storm Tracking
New forecast layout! Learn more

10-Day Weather Forecast

Advertisements
Track Severe Weather on mobile